Time;durP1;ratioP1;P1;durP2;ratioP2;P2;SDS_P1;SDS_P2;PMS_P1;PMS_P2;Temp;Humidity;BMP_temperature;BMP_pressure;BME280_temperature;BME280_humidity;BME280_pressure;Samples;Min_cycle;Max_cycle;Signal;HPM_P1;HPM_P2
2022/01/01 00:01:29;;;;;;;8.52;3.97;;;13.00;99.90;;;;;;5033550;28;20057;-66
2022/01/01 00:03:54;;;;;;;12.30;5.03;;;13.00;99.90;;;;;;5039762;28;20029;-66
2022/01/01 00:06:20;;;;;;;16.98;3.97;;;13.00;99.90;;;;;;5038448;28;20025;-65
2022/01/01 00:08:46;;;;;;;13.20;3.78;;;13.00;99.90;;;;;;5037899;28;20032;-65
2022/01/01 00:11:12;;;;;;;12.43;4.70;;;13.00;99.90;;;;;;5037023;28;20504;-65
2022/01/01 00:13:39;;;;;;;13.23;3.80;;;13.00;99.90;;;;;;5036291;28;20465;-65
2022/01/01 00:16:09;;;;;;;7.45;3.08;;;13.00;99.90;;;;;;5038701;28;20017;-65
2022/01/01 00:18:38;;;;;;;14.63;4.75;;;12.90;99.90;;;;;;5038755;28;20074;-65
2022/01/01 00:21:05;;;;;;;7.00;3.00;;;13.00;99.90;;;;;;5040430;28;20036;-65
2022/01/01 00:23:31;;;;;;;11.40;4.10;;;13.00;99.90;;;;;;5029353;28;20450;-65
2022/01/01 00:25:56;;;;;;;13.85;4.78;;;13.10;99.90;;;;;;5036830;28;20068;-65
2022/01/01 00:28:22;;;;;;;11.05;4.63;;;13.00;99.90;;;;;;5037215;28;20461;-65
2022/01/01 00:30:47;;;;;;;13.82;4.57;;;13.00;99.90;;;;;;5032121;28;20106;-65
2022/01/01 00:33:13;;;;;;;8.93;3.47;;;13.00;99.90;;;;;;5037672;28;20034;-65
2022/01/01 00:35:40;;;;;;;10.10;4.30;;;13.00;99.90;;;;;;5038548;28;20037;-65
2022/01/01 00:38:06;;;;;;;14.57;3.67;;;12.90;99.90;;;;;;5037982;28;20477;-66
2022/01/01 00:40:32;;;;;;;9.90;3.03;;;12.90;99.90;;;;;;5039878;28;20093;-65
2022/01/01 00:43:00;;;;;;;10.25;3.95;;;13.00;99.90;;;;;;5036624;28;20100;-65
2022/01/01 00:45:25;;;;;;;13.30;4.97;;;12.90;99.90;;;;;;5038296;28;20099;-65
2022/01/01 00:47:51;;;;;;;11.10;3.53;;;12.90;99.90;;;;;;5035563;28;20033;-65
2022/01/01 00:50:17;;;;;;;12.85;4.38;;;12.90;99.90;;;;;;5041423;28;20474;-65
2022/01/01 00:52:44;;;;;;;10.48;3.67;;;12.90;99.90;;;;;;5040439;28;20029;-65
2022/01/01 00:55:10;;;;;;;10.65;4.13;;;12.90;99.90;;;;;;5031892;28;20032;-65
2022/01/01 00:57:36;;;;;;;13.77;3.13;;;12.90;99.90;;;;;;5034014;28;20426;-65
2022/01/01 01:00:04;;;;;;;10.75;3.45;;;12.90;99.90;;;;;;5034535;28;20056;-66
2022/01/01 01:02:30;;;;;;;10.73;3.80;;;12.90;99.90;;;;;;5043122;28;20051;-66
2022/01/01 01:04:56;;;;;;;13.50;3.20;;;12.90;99.90;;;;;;5038332;28;20104;-66
2022/01/01 01:07:22;;;;;;;12.85;3.65;;;12.90;99.90;;;;;;5039649;28;20103;-65
2022/01/01 01:09:47;;;;;;;11.38;3.20;;;12.90;99.90;;;;;;5040946;28;20041;-66
2022/01/01 01:12:13;;;;;;;6.18;2.35;;;12.90;99.90;;;;;;5042783;28;20029;-68
2022/01/01 01:14:42;;;;;;;11.05;3.50;;;12.90;99.90;;;;;;5040588;28;20067;-66
2022/01/01 01:17:10;;;;;;;10.60;3.10;;;12.90;99.90;;;;;;5038664;28;20032;-66
2022/01/01 01:19:36;;;;;;;9.38;3.03;;;12.90;99.90;;;;;;5037773;28;20025;-66
2022/01/01 01:22:01;;;;;;;11.63;3.10;;;12.90;99.90;;;;;;5031101;28;20393;-66
2022/01/01 01:24:27;;;;;;;10.32;3.92;;;12.90;99.90;;;;;;5034493;28;20025;-66
2022/01/01 01:26:53;;;;;;;13.55;2.88;;;12.90;99.90;;;;;;5036547;28;20053;-66
2022/01/01 01:29:20;;;;;;;9.15;3.67;;;12.90;99.90;;;;;;5040957;28;20040;-66
2022/01/01 01:31:47;;;;;;;14.52;3.33;;;12.90;99.90;;;;;;5038879;28;20032;-66
2022/01/01 01:34:12;;;;;;;8.88;3.60;;;13.00;99.90;;;;;;5036784;28;20021;-66
2022/01/01 01:36:38;;;;;;;14.20;3.28;;;13.00;99.90;;;;;;5040103;28;20031;-66
2022/01/01 01:39:04;;;;;;;13.82;3.60;;;12.90;99.90;;;;;;5034670;28;20100;-66
2022/01/01 01:41:31;;;;;;;10.77;3.17;;;12.90;99.90;;;;;;5036906;28;20029;-66
2022/01/01 01:44:02;;;;;;;7.22;2.38;;;12.90;99.90;;;;;;5034756;28;20382;-66
2022/01/01 01:46:28;;;;;;;6.95;3.13;;;12.90;99.90;;;;;;5036661;28;20016;-66
2022/01/01 01:48:54;;;;;;;11.68;4.00;;;12.80;99.90;;;;;;5037973;28;20040;-66
2022/01/01 01:51:21;;;;;;;13.65;4.35;;;12.90;99.90;;;;;;5039528;28;20027;-66
2022/01/01 01:53:47;;;;;;;8.25;2.70;;;12.80;99.90;;;;;;5038141;28;20021;-66
2022/01/01 01:56:12;;;;;;;9.43;2.95;;;12.80;99.90;;;;;;5032921;28;20102;-66
2022/01/01 01:58:38;;;;;;;9.57;3.97;;;12.90;99.90;;;;;;5034028;28;20029;-66
2022/01/01 02:01:23;;;;;;;8.90;3.35;;;12.90;99.90;;;;;;5035032;28;20033;-66
2022/01/01 02:03:49;;;;;;;14.88;3.97;;;12.80;99.90;;;;;;5035587;28;20025;-65
2022/01/01 02:06:17;;;;;;;11.35;3.75;;;12.90;99.90;;;;;;5038836;28;20078;-66
2022/01/01 02:08:43;;;;;;;10.20;3.58;;;12.80;99.90;;;;;;5032167;28;20029;-65
2022/01/01 02:11:08;;;;;;;10.13;3.25;;;12.90;99.90;;;;;;5038181;28;20500;-65
2022/01/01 02:13:59;;;;;;;9.18;3.30;;;12.90;99.90;;;;;;5034265;28;20036;-65
2022/01/01 02:18:56;;;;;;;11.25;3.60;;;12.90;99.90;;;;;;5023614;28;20021;-66
2022/01/01 02:21:23;;;;;;;14.93;3.58;;;12.90;99.90;;;;;;5032082;28;20025;-65
2022/01/01 02:23:56;;;;;;;18.10;4.00;;;12.90;99.90;;;;;;5028273;28;20036;-65
2022/01/01 02:26:26;;;;;;;12.00;3.40;;;12.90;99.90;;;;;;5021017;28;20022;-66
2022/01/01 02:28:52;;;;;;;;;;;12.90;99.90;;;;;;5028475;28;20559;-66
2022/01/01 02:31:17;;;;;;;11.70;3.05;;;12.90;99.90;;;;;;5032062;28;19969;-66
2022/01/01 02:33:44;;;;;;;11.05;3.53;;;12.80;99.90;;;;;;5039519;28;20021;-66
2022/01/01 02:36:10;;;;;;;15.68;3.67;;;12.90;99.90;;;;;;5029487;28;20053;-66
2022/01/01 02:38:36;;;;;;;7.55;2.53;;;12.90;99.90;;;;;;5030680;28;20021;-66
2022/01/01 02:41:02;;;;;;;11.40;3.40;;;12.90;99.90;;;;;;5029765;28;20036;-66
2022/01/01 02:43:28;;;;;;;9.20;2.58;;;12.90;99.90;;;;;;5036444;28;20021;-66
2022/01/01 02:45:54;;;;;;;8.80;3.00;;;12.80;99.90;;;;;;5033513;28;20028;-66
2022/01/01 02:48:20;;;;;;;8.15;2.83;;;12.90;99.90;;;;;;5036856;28;20029;-66
2022/01/01 02:50:46;;;;;;;13.23;3.67;;;12.80;99.90;;;;;;5038507;28;20029;-66
2022/01/01 02:53:16;;;;;;;9.10;3.88;;;12.90;99.90;;;;;;5039112;28;20439;-66
2022/01/01 02:55:45;;;;;;;6.10;1.95;;;12.80;99.90;;;;;;5029404;28;20044;-66
2022/01/01 02:58:12;;;;;;;11.15;3.45;;;12.90;99.90;;;;;;5036020;28;20034;-66
2022/01/01 03:00:39;;;;;;;8.00;3.00;;;12.90;99.90;;;;;;5030072;28;20032;-66
2022/01/01 03:03:05;;;;;;;17.20;3.75;;;12.90;99.90;;;;;;5042649;28;20025;-66
2022/01/01 03:05:31;;;;;;;11.55;3.33;;;12.90;99.90;;;;;;5041626;28;20029;-66
2022/01/01 03:07:58;;;;;;;10.52;3.38;;;12.90;99.90;;;;;;5039887;28;20078;-66
2022/01/01 03:10:24;;;;;;;9.38;2.72;;;12.90;99.90;;;;;;5039799;28;20032;-66
2022/01/01 03:12:49;;;;;;;7.78;3.17;;;12.90;99.90;;;;;;5032019;28;20013;-66
2022/01/01 03:15:15;;;;;;;14.00;2.70;;;12.80;99.90;;;;;;5037863;28;20057;-66
2022/01/01 03:17:41;;;;;;;11.23;2.92;;;13.00;99.90;;;;;;5041193;28;20090;-66
2022/01/01 03:20:07;;;;;;;9.60;3.40;;;13.00;99.90;;;;;;5033199;28;20105;-66
2022/01/01 03:22:33;;;;;;;30.88;3.72;;;12.90;99.90;;;;;;5035722;28;20552;-66
2022/01/01 03:24:58;;;;;;;9.20;2.70;;;12.90;99.90;;;;;;5039296;28;20108;-66
2022/01/01 03:27:24;;;;;;;10.90;2.92;;;12.90;99.90;;;;;;5038463;28;20025;-66
2022/01/01 03:29:50;;;;;;;12.38;3.08;;;13.00;99.90;;;;;;5036172;28;20068;-66
2022/01/01 03:32:16;;;;;;;15.95;3.25;;;13.00;99.90;;;;;;5032011;28;20572;-66
2022/01/01 03:34:42;;;;;;;11.23;3.00;;;13.00;99.90;;;;;;5031291;28;20025;-66
2022/01/01 03:37:08;;;;;;;11.27;2.75;;;12.90;99.90;;;;;;5037368;28;20017;-66
2022/01/01 03:39:34;;;;;;;6.38;2.13;;;13.00;99.90;;;;;;5034752;28;20040;-66
2022/01/01 03:42:00;;;;;;;9.70;3.15;;;12.90;99.90;;;;;;5035788;28;20033;-66
2022/01/01 03:44:25;;;;;;;13.38;3.33;;;12.90;99.90;;;;;;5036561;28;20596;-66
2022/01/01 03:46:54;;;;;;;10.18;2.45;;;12.90;99.90;;;;;;5033922;28;20025;-67
2022/01/01 03:49:19;;;;;;;7.25;2.80;;;13.00;99.90;;;;;;5037713;28;20469;-67
2022/01/01 03:51:45;;;;;;;9.23;2.75;;;13.00;99.90;;;;;;5037226;28;20025;-67
2022/01/01 03:54:12;;;;;;;10.00;2.88;;;13.00;99.90;;;;;;5036518;28;20010;-67
2022/01/01 03:56:38;;;;;;;14.45;3.40;;;13.00;99.90;;;;;;5037395;28;20078;-67
2022/01/01 03:59:04;;;;;;;11.63;3.25;;;13.00;99.90;;;;;;5039202;28;20105;-67
2022/01/01 04:01:30;;;;;;;11.38;3.80;;;13.00;99.90;;;;;;5036291;28;20060;-67
2022/01/01 04:03:55;;;;;;;12.10;3.15;;;13.00;99.90;;;;;;5039712;28;20029;-67
2022/01/01 04:06:21;;;;;;;10.93;2.90;;;13.00;99.90;;;;;;5040482;28;20025;-67
2022/01/01 04:08:46;;;;;;;11.00;3.17;;;13.00;99.90;;;;;;5038815;28;20118;-66
2022/01/01 04:11:12;;;;;;;9.00;2.92;;;13.00;99.90;;;;;;5049592;28;20041;-67
2022/01/01 04:13:37;;;;;;;8.98;3.33;;;13.00;99.90;;;;;;5042853;28;20033;-65
2022/01/01 04:16:03;;;;;;;5.32;2.60;;;13.00;99.90;;;;;;5046279;28;20067;-66
2022/01/01 04:18:38;;;;;;;9.45;3.47;;;13.00;99.90;;;;;;5040094;28;20030;-66
2022/01/01 04:21:08;;;;;;;13.45;4.18;;;13.00;99.90;;;;;;5035959;28;20126;-66
2022/01/01 04:23:35;;;;;;;10.25;3.03;;;13.00;99.90;;;;;;5044947;28;20084;-66
2022/01/01 04:26:01;;;;;;;10.20;3.28;;;13.00;99.90;;;;;;5042794;28;20484;-66
2022/01/01 04:28:26;;;;;;;11.85;3.05;;;13.00;99.90;;;;;;5039741;28;20025;-66
2022/01/01 04:30:52;;;;;;;16.45;3.75;;;13.00;99.90;;;;;;5043731;28;20564;-66
2022/01/01 04:33:17;;;;;;;16.67;4.50;;;13.00;99.90;;;;;;5033065;28;20021;-66
2022/01/01 04:35:43;;;;;;;6.40;2.50;;;13.00;99.90;;;;;;5040335;28;20100;-66
2022/01/01 04:38:21;;;;;;;17.52;3.55;;;12.90;99.90;;;;;;5035995;28;20167;-66
2022/01/01 04:40:47;;;;;;;12.13;3.83;;;12.90;99.90;;;;;;5039299;28;20056;-66
2022/01/01 04:43:13;;;;;;;10.95;3.85;;;13.00;99.90;;;;;;5037934;28;20129;-66
2022/01/01 04:45:38;;;;;;;11.20;3.97;;;13.00;99.90;;;;;;5039789;28;20037;-66
2022/01/01 04:48:04;;;;;;;10.05;3.42;;;13.00;99.90;;;;;;5039837;28;20025;-66
2022/01/01 04:50:29;;;;;;;8.48;3.38;;;12.90;99.90;;;;;;5035380;28;20151;-66
2022/01/01 04:52:56;;;;;;;9.45;3.30;;;12.90;99.90;;;;;;5035262;28;20385;-66
2022/01/01 04:55:23;;;;;;;15.18;4.00;;;12.90;99.90;;;;;;5038553;28;20018;-66
2022/01/01 04:57:49;;;;;;;13.38;4.00;;;13.00;99.90;;;;;;5034821;28;20029;-66
2022/01/01 05:00:15;;;;;;;13.63;3.80;;;13.00;99.90;;;;;;5041612;28;20017;-66
2022/01/01 05:02:40;;;;;;;10.38;3.38;;;13.00;99.90;;;;;;5041150;28;20464;-66
2022/01/01 05:05:07;;;;;;;11.70;3.80;;;13.00;99.90;;;;;;5043541;28;20499;-66
2022/01/01 05:07:32;;;;;;;9.48;3.05;;;12.90;99.90;;;;;;5042089;28;20106;-67
2022/01/01 05:09:59;;;;;;;8.23;3.03;;;12.90;99.90;;;;;;5044216;28;20507;-66
2022/01/01 05:12:25;;;;;;;9.52;3.10;;;12.90;99.90;;;;;;5038164;28;20106;-66
2022/01/01 05:14:50;;;;;;;9.68;3.30;;;12.90;99.90;;;;;;5043737;28;20072;-66
2022/01/01 05:17:17;;;;;;;16.38;3.28;;;12.90;99.90;;;;;;5034807;28;20103;-66
2022/01/01 05:19:43;;;;;;;7.60;2.60;;;12.90;99.90;;;;;;5046043;28;20024;-66
2022/01/01 05:22:09;;;;;;;10.52;3.00;;;12.90;99.90;;;;;;5038391;28;20401;-66
2022/01/01 05:24:35;;;;;;;11.90;3.40;;;12.90;99.90;;;;;;5044258;28;20044;-66
2022/01/01 05:27:00;;;;;;;5.07;1.98;;;12.90;99.90;;;;;;5033924;28;20043;-65
2022/01/01 05:29:26;;;;;;;12.98;3.72;;;12.90;99.90;;;;;;5031590;28;20065;-65
2022/01/01 05:31:52;;;;;;;11.07;3.08;;;12.90;99.90;;;;;;5038898;28;20389;-65
2022/01/01 05:34:17;;;;;;;7.80;2.47;;;12.90;99.90;;;;;;5036727;28;20056;-65
2022/01/01 05:36:43;;;;;;;14.05;3.05;;;12.90;99.90;;;;;;5034685;28;20030;-65
2022/01/01 05:39:08;;;;;;;10.77;3.25;;;12.90;99.90;;;;;;5040401;28;20035;-65
2022/01/01 05:41:34;;;;;;;16.88;2.40;;;12.80;99.90;;;;;;5035598;28;20042;-65
2022/01/01 05:44:00;;;;;;;7.05;1.75;;;12.80;99.90;;;;;;5038494;28;20082;-65
2022/01/01 05:46:29;;;;;;;7.05;2.05;;;12.90;99.90;;;;;;5036247;28;20025;-65
2022/01/01 05:48:54;;;;;;;7.18;2.25;;;13.00;99.90;;;;;;5041821;28;20107;-65
2022/01/01 05:51:20;;;;;;;7.57;2.25;;;13.00;99.90;;;;;;5039083;28;20041;-65
2022/01/01 05:53:45;;;;;;;7.68;2.08;;;12.90;99.90;;;;;;5042104;28;20473;-65
2022/01/01 05:56:11;;;;;;;6.45;2.20;;;12.90;99.90;;;;;;5036767;28;20022;-66
2022/01/01 05:58:37;;;;;;;5.75;1.83;;;13.00;99.90;;;;;;5042032;28;20024;-65
2022/01/01 06:01:02;;;;;;;7.50;2.13;;;13.00;99.90;;;;;;5035570;28;20064;-65
2022/01/01 06:03:28;;;;;;;8.07;1.95;;;12.90;99.90;;;;;;5040837;28;20079;-65
2022/01/01 06:05:53;;;;;;;6.70;2.13;;;13.00;99.90;;;;;;5038123;28;20031;-65
2022/01/01 06:08:19;;;;;;;4.40;1.52;;;13.00;99.90;;;;;;5046850;28;20847;-65
2022/01/01 06:10:45;;;;;;;6.97;2.20;;;13.00;99.90;;;;;;5034499;28;20021;-66
2022/01/01 06:13:11;;;;;;;7.80;1.98;;;13.00;99.90;;;;;;5037842;28;20469;-66
2022/01/01 06:15:36;;;;;;;8.82;2.40;;;13.00;99.90;;;;;;5042898;28;20550;-66
2022/01/01 06:18:02;;;;;;;5.90;1.95;;;13.00;99.90;;;;;;5039588;28;20060;-66
2022/01/01 06:20:28;;;;;;;6.95;2.20;;;13.00;99.90;;;;;;5035786;28;20404;-66
2022/01/01 06:22:53;;;;;;;6.45;2.00;;;13.00;99.90;;;;;;5034776;28;20777;-66
2022/01/01 06:25:19;;;;;;;10.38;2.42;;;13.00;99.90;;;;;;5037153;28;20040;-66
2022/01/01 06:27:45;;;;;;;7.53;2.22;;;13.00;99.90;;;;;;5036579;28;20029;-66
2022/01/01 06:30:11;;;;;;;6.35;1.67;;;13.00;99.90;;;;;;5038153;28;20060;-66
2022/01/01 06:32:36;;;;;;;6.07;1.70;;;13.00;99.90;;;;;;5036692;28;20037;-66
2022/01/01 06:35:02;;;;;;;8.32;1.98;;;13.00;99.90;;;;;;5040066;28;20087;-66
2022/01/01 06:37:29;;;;;;;8.35;2.17;;;13.00;99.90;;;;;;5037046;28;20025;-65
2022/01/01 06:39:54;;;;;;;5.72;2.13;;;13.00;99.90;;;;;;5037041;28;20076;-66
2022/01/01 06:42:20;;;;;;;7.82;1.83;;;13.00;99.90;;;;;;5034289;28;20057;-66
2022/01/01 06:44:46;;;;;;;7.90;2.47;;;13.00;99.90;;;;;;5037046;28;20017;-66
2022/01/01 06:47:11;;;;;;;5.40;1.85;;;13.00;99.90;;;;;;5036888;28;20036;-66
2022/01/01 06:49:37;;;;;;;5.82;1.80;;;13.00;99.90;;;;;;5037643;28;20022;-66
2022/01/01 06:52:04;;;;;;;7.65;2.05;;;13.00;99.90;;;;;;5035742;28;20385;-65
2022/01/01 06:54:30;;;;;;;6.25;2.33;;;12.90;99.90;;;;;;5038767;28;20072;-66
2022/01/01 06:56:56;;;;;;;7.28;1.70;;;13.00;99.90;;;;;;5039820;28;20437;-66
2022/01/01 06:59:22;;;;;;;5.38;2.17;;;13.00;99.90;;;;;;5039581;28;20013;-65
2022/01/01 07:01:48;;;;;;;4.25;1.60;;;13.00;99.90;;;;;;5033084;28;20105;-66
2022/01/01 07:04:14;;;;;;;5.38;2.15;;;13.00;99.90;;;;;;5043489;28;20590;-66
2022/01/01 07:06:39;;;;;;;6.35;1.88;;;13.00;99.90;;;;;;5036341;28;20033;-66
2022/01/01 07:09:06;;;;;;;13.45;1.95;;;13.00;99.90;;;;;;5033942;28;20032;-66
2022/01/01 07:11:31;;;;;;;5.93;1.70;;;13.00;99.90;;;;;;5037663;28;20496;-66
2022/01/01 07:13:57;;;;;;;7.43;2.30;;;13.00;99.90;;;;;;5035829;28;20021;-66
2022/01/01 07:16:22;;;;;;;7.72;2.20;;;13.00;99.90;;;;;;5038961;28;20083;-66
2022/01/01 07:18:48;;;;;;;9.25;1.83;;;13.00;99.90;;;;;;5034312;28;20564;-66
2022/01/01 07:21:14;;;;;;;9.43;1.98;;;13.00;99.90;;;;;;5038414;28;20070;-66
2022/01/01 07:23:39;;;;;;;7.90;2.25;;;13.00;99.90;;;;;;5036996;28;20039;-66
2022/01/01 07:26:05;;;;;;;5.70;1.63;;;13.00;99.90;;;;;;5040447;28;20656;-66
2022/01/01 07:28:31;;;;;;;9.18;2.00;;;13.10;99.90;;;;;;5035672;28;20060;-66
2022/01/01 07:30:59;;;;;;;9.20;2.08;;;13.00;99.90;;;;;;5039207;28;20091;-66
2022/01/01 07:33:25;;;;;;;8.13;1.92;;;13.00;99.90;;;;;;5037324;28;20053;-66
2022/01/01 07:35:50;;;;;;;4.18;1.40;;;13.00;99.90;;;;;;5037602;28;22048;-66
2022/01/01 07:38:16;;;;;;;7.28;1.75;;;13.00;99.90;;;;;;5040892;28;20025;-66
2022/01/01 07:40:42;;;;;;;4.70;1.65;;;13.00;99.90;;;;;;5039785;28;20033;-66
2022/01/01 07:43:12;;;;;;;6.85;1.90;;;13.00;99.90;;;;;;5030484;28;20025;-66
2022/01/01 07:45:38;;;;;;;;;;;13.00;99.90;;;;;;5034974;28;20021;-66
2022/01/01 07:48:04;;;;;;;4.82;1.80;;;13.00;99.90;;;;;;5033606;28;19929;-66
2022/01/01 07:50:30;;;;;;;7.10;1.75;;;13.00;99.90;;;;;;5037781;28;20025;-66
2022/01/01 07:52:55;;;;;;;7.45;1.75;;;13.10;99.90;;;;;;5036374;28;20053;-66
2022/01/01 07:55:21;;;;;;;5.18;1.60;;;13.10;99.90;;;;;;5036210;28;20021;-66
2022/01/01 07:57:46;;;;;;;6.80;1.92;;;13.10;99.90;;;;;;5035128;28;20025;-67
2022/01/01 08:00:13;;;;;;;4.10;1.50;;;13.00;99.90;;;;;;5033950;28;20475;-67
2022/01/01 08:02:48;;;;;;;4.15;1.63;;;13.10;99.90;;;;;;5038152;28;20039;-67
2022/01/01 08:05:19;;;;;;;6.63;1.88;;;13.10;99.90;;;;;;5031012;28;20104;-67
2022/01/01 08:07:45;;;;;;;4.28;1.25;;;13.20;99.90;;;;;;5033050;28;20025;-67
2022/01/01 08:10:12;;;;;;;6.22;1.80;;;13.20;99.90;;;;;;5033515;28;20045;-67
2022/01/01 08:12:38;;;;;;;6.05;1.38;;;13.20;99.90;;;;;;5034073;28;20075;-67
2022/01/01 08:15:05;;;;;;;4.68;1.30;;;13.20;99.90;;;;;;5039117;28;20047;-67
2022/01/01 08:17:31;;;;;;;4.78;1.20;;;13.20;99.90;;;;;;5033900;28;20013;-67
2022/01/01 08:19:57;;;;;;;7.25;1.27;;;13.30;99.90;;;;;;5036458;28;20072;-66
2022/01/01 08:22:23;;;;;;;4.93;1.38;;;13.20;99.90;;;;;;5035546;28;20048;-66
2022/01/01 08:24:49;;;;;;;6.35;1.80;;;13.30;99.90;;;;;;5044751;28;20062;-66
2022/01/01 08:27:15;;;;;;;6.68;1.88;;;13.30;99.90;;;;;;5036126;28;20442;-67
2022/01/01 08:29:41;;;;;;;4.75;1.33;;;13.30;99.90;;;;;;5036873;28;20123;-67
2022/01/01 08:32:07;;;;;;;7.95;1.75;;;13.30;99.90;;;;;;5034282;28;20061;-67
2022/01/01 08:34:33;;;;;;;7.85;1.65;;;13.30;99.90;;;;;;5032674;28;20022;-67
2022/01/01 08:36:59;;;;;;;4.55;1.40;;;13.40;99.90;;;;;;5035916;28;20040;-67
2022/01/01 08:39:24;;;;;;;3.65;1.10;;;13.40;99.90;;;;;;5034309;28;20112;-67
2022/01/01 08:41:50;;;;;;;4.57;1.27;;;13.40;99.90;;;;;;5035800;28;20021;-67
2022/01/01 08:44:16;;;;;;;2.65;1.02;;;13.40;99.90;;;;;;5032582;28;20037;-67
2022/01/01 08:46:42;;;;;;;5.18;1.80;;;13.40;99.90;;;;;;5036342;28;20108;-67
2022/01/01 08:49:08;;;;;;;5.38;1.92;;;13.40;99.90;;;;;;5035575;28;20052;-67
2022/01/01 08:51:34;;;;;;;4.78;1.55;;;13.40;99.90;;;;;;5037877;28;20093;-67
2022/01/01 08:54:01;;;;;;;3.83;1.58;;;13.40;99.90;;;;;;5035656;28;20026;-67
2022/01/01 08:56:26;;;;;;;5.65;1.75;;;13.40;99.90;;;;;;5035623;28;20021;-67
2022/01/01 08:58:52;;;;;;;12.43;1.90;;;13.40;99.90;;;;;;5040209;28;20043;-67
2022/01/01 09:01:19;;;;;;;13.10;1.90;;;13.40;99.90;;;;;;5035379;28;20026;-67
2022/01/01 09:03:46;;;;;;;4.20;1.45;;;13.40;99.90;;;;;;5041905;28;20028;-66
2022/01/01 09:06:12;;;;;;;5.65;1.40;;;13.40;99.90;;;;;;5038028;28;20029;-66
2022/01/01 09:08:40;;;;;;;5.03;1.60;;;13.40;99.90;;;;;;5036538;28;20440;-66
2022/01/01 09:11:06;;;;;;;6.68;1.67;;;13.50;99.90;;;;;;5038250;28;20024;-66
2022/01/01 09:13:32;;;;;;;5.10;1.42;;;13.50;99.90;;;;;;5036324;28;20026;-66
2022/01/01 09:15:58;;;;;;;3.72;1.40;;;13.50;99.90;;;;;;5039064;28;20559;-66
2022/01/01 09:18:24;;;;;;;5.18;1.67;;;13.50;99.90;;;;;;5036834;28;20022;-66
2022/01/01 09:20:49;;;;;;;8.85;1.70;;;13.60;99.90;;;;;;5040617;28;20503;-65
2022/01/01 09:23:15;;;;;;;3.53;1.40;;;13.60;99.90;;;;;;5038055;28;20029;-66
2022/01/01 09:25:41;;;;;;;4.55;1.40;;;13.60;99.90;;;;;;5036987;28;20017;-66
2022/01/01 09:28:07;;;;;;;3.33;1.33;;;13.70;99.90;;;;;;5036848;28;20075;-66
2022/01/01 09:30:33;;;;;;;4.15;1.40;;;13.80;99.90;;;;;;5033930;28;20116;-67
2022/01/01 09:32:59;;;;;;;3.90;1.35;;;13.80;99.90;;;;;;5039355;28;20038;-67
2022/01/01 09:35:24;;;;;;;8.10;1.73;;;13.90;99.90;;;;;;5036297;28;20080;-67
2022/01/01 09:37:50;;;;;;;3.95;1.27;;;14.10;99.90;;;;;;5037688;28;20028;-67
2022/01/01 09:40:16;;;;;;;2.72;1.10;;;14.20;99.90;;;;;;5035282;28;20025;-67
2022/01/01 09:42:44;;;;;;;4.20;1.30;;;14.20;99.90;;;;;;5033436;28;20485;-66
2022/01/01 09:45:10;;;;;;;2.97;1.35;;;14.30;99.90;;;;;;5039765;28;20105;-66
2022/01/01 09:47:37;;;;;;;5.13;1.20;;;14.70;99.90;;;;;;5039523;28;20036;-66
2022/01/01 09:50:07;;;;;;;3.05;1.13;;;15.10;99.90;;;;;;5041283;28;20593;-66
2022/01/01 09:52:33;;;;;;;;;;;15.80;99.90;;;;;;5031056;28;20485;-67
2022/01/01 09:54:58;;;;;;;1.67;1.02;;;16.00;99.90;;;;;;5035539;28;19905;-68
2022/01/01 09:57:24;;;;;;;3.17;1.15;;;16.00;99.90;;;;;;5037252;28;20041;-68
2022/01/01 09:59:50;;;;;;;3.53;1.55;;;15.60;99.90;;;;;;5036188;28;20029;-67
2022/01/01 10:02:15;;;;;;;1.45;0.70;;;15.40;99.90;;;;;;5034887;28;20025;-67
2022/01/01 10:04:48;;;;;;;3.72;1.27;;;15.20;99.90;;;;;;5041034;28;20058;-67
2022/01/01 10:07:14;;;;;;;2.42;0.90;;;15.10;99.90;;;;;;5018089;28;20367;-68
2022/01/01 10:09:40;;;;;;;3.08;1.00;;;15.10;99.90;;;;;;5032077;28;20044;-68
2022/01/01 10:12:10;;;;;;;2.95;0.90;;;15.00;99.90;;;;;;5033540;28;20028;-67
2022/01/01 10:14:36;;;;;;;8.35;1.27;;;14.90;99.90;;;;;;5033727;28;20032;-67
2022/01/01 10:17:29;;;;;;;2.72;1.00;;;14.80;99.90;;;;;;5035145;28;20025;-67
2022/01/01 10:19:55;;;;;;;2.45;1.02;;;14.90;99.90;;;;;;5028551;28;20033;-68
2022/01/01 10:22:22;;;;;;;3.55;1.10;;;14.70;99.90;;;;;;5030912;28;20022;-67
2022/01/01 10:28:00;;;;;;;1.35;0.73;;;14.60;99.90;;;;;;5034301;28;20029;-67
2022/01/01 10:30:36;;;;;;;6.03;1.55;;;14.60;99.90;;;;;;5030370;28;20045;-67
2022/01/01 10:33:07;;;;;;;3.58;1.05;;;14.60;99.90;;;;;;5031691;28;20922;-67
2022/01/01 10:35:35;;;;;;;1.70;1.00;;;14.60;99.90;;;;;;5029738;28;20025;-68
2022/01/01 10:38:04;;;;;;;3.53;1.08;;;14.60;99.90;;;;;;5031634;28;20021;-68
2022/01/01 10:40:30;;;;;;;2.60;0.77;;;14.60;99.90;;;;;;5030320;28;20026;-67
2022/01/01 10:42:56;;;;;;;4.60;1.50;;;14.70;99.90;;;;;;5034058;28;20987;-67
2022/01/01 10:45:33;;;;;;;8.77;1.20;;;14.70;99.90;;;;;;5034919;28;20029;-67
2022/01/01 10:48:40;;;;;;;1.38;0.80;;;14.80;99.90;;;;;;5033246;28;20411;-67
2022/01/01 10:51:08;;;;;;;5.72;1.10;;;14.70;99.90;;;;;;5031864;28;20528;-67
2022/01/01 10:53:35;;;;;;;3.08;1.13;;;14.80;99.90;;;;;;5035276;28;20075;-67
2022/01/01 10:56:03;;;;;;;1.85;1.02;;;14.70;99.90;;;;;;5032061;28;20030;-67
2022/01/01 10:58:35;;;;;;;4.60;1.30;;;15.10;99.90;;;;;;5027549;28;20057;-67
2022/01/01 11:01:05;;;;;;;4.15;1.27;;;15.30;99.90;;;;;;5024940;28;20017;-67
2022/01/01 11:03:38;;;;;;;3.13;1.10;;;15.30;99.90;;;;;;5025243;28;20022;-67
2022/01/01 11:06:10;;;;;;;4.75;1.05;;;15.50;99.90;;;;;;5028375;28;20021;-67
2022/01/01 11:08:40;;;;;;;5.05;1.08;;;15.40;99.90;;;;;;5032681;28;20021;-67
2022/01/01 11:11:06;;;;;;;2.30;1.05;;;15.40;99.90;;;;;;5023567;28;20032;-67
2022/01/01 11:13:32;;;;;;;4.85;1.30;;;15.20;99.90;;;;;;5030581;28;20470;-67
2022/01/01 11:15:58;;;;;;;2.95;1.42;;;15.20;99.90;;;;;;5026380;28;20018;-67
2022/01/01 11:18:27;;;;;;;3.58;1.05;;;15.30;99.90;;;;;;5023812;28;20025;-67
2022/01/01 11:20:53;;;;;;;1.73;0.90;;;15.50;99.90;;;;;;5032775;28;20024;-67
2022/01/01 11:23:20;;;;;;;3.28;1.60;;;15.50;99.90;;;;;;5036920;28;20021;-67
2022/01/01 11:25:47;;;;;;;3.90;1.00;;;15.60;99.90;;;;;;5030251;28;20562;-67
2022/01/01 11:28:17;;;;;;;3.83;0.95;;;15.70;99.90;;;;;;5039661;28;20397;-67
2022/01/01 11:31:07;;;;;;;1.98;0.82;;;15.70;99.90;;;;;;5032565;28;20040;-67
2022/01/01 11:33:40;;;;;;;5.50;1.05;;;15.80;99.90;;;;;;5036233;28;20080;-68
2022/01/01 11:36:06;;;;;;;3.17;1.02;;;15.80;99.90;;;;;;5029331;28;20024;-67
2022/01/01 11:38:37;;;;;;;10.57;1.10;;;15.70;99.90;;;;;;5035985;28;20025;-67
2022/01/01 11:41:06;;;;;;;4.55;1.63;;;15.60;99.90;;;;;;5037560;28;20029;-67
2022/01/01 11:43:53;;;;;;;1.98;0.93;;;16.00;99.90;;;;;;5036954;28;20528;-68
2022/01/01 11:46:26;;;;;;;3.47;1.20;;;16.50;99.90;;;;;;5022384;28;20028;-68
2022/01/01 11:48:54;;;;;;;2.78;1.02;;;16.50;99.90;;;;;;5030150;28;20036;-68
2022/01/01 11:51:31;;;;;;;1.65;0.70;;;16.50;99.90;;;;;;5034444;28;20024;-67
2022/01/01 11:54:15;;;;;;;2.83;0.80;;;16.80;99.90;;;;;;5029216;28;20060;-67
2022/01/01 11:56:46;;;;;;;2.85;0.82;;;17.10;99.90;;;;;;5025001;28;20026;-68
2022/01/01 11:59:19;;;;;;;1.85;0.93;;;17.50;99.90;;;;;;5030145;28;20014;-68
2022/01/01 12:01:45;;;;;;;4.43;1.33;;;17.30;99.90;;;;;;5031115;28;20053;-68
2022/01/01 12:04:33;;;;;;;2.83;0.88;;;17.40;99.90;;;;;;5031854;28;20044;-68
2022/01/01 12:07:19;;;;;;;2.95;0.98;;;17.80;99.90;;;;;;5026835;28;20363;-68
2022/01/01 12:10:04;;;;;;;1.73;0.88;;;17.30;99.90;;;;;;5027403;28;20041;-68
2022/01/01 12:12:58;;;;;;;3.70;1.10;;;17.10;99.90;;;;;;5030244;28;20026;-68
2022/01/01 12:15:24;;;;;;;2.17;0.90;;;17.10;99.90;;;;;;5032202;28;20080;-67
2022/01/01 12:17:53;;;;;;;6.28;1.13;;;17.00;99.90;;;;;;5029844;28;20481;-67
2022/01/01 12:20:21;;;;;;;5.85;1.20;;;16.90;99.90;;;;;;5031978;28;20503;-68
2022/01/01 12:22:48;;;;;;;2.05;0.93;;;16.60;99.90;;;;;;5028773;28;20037;-67
2022/01/01 12:25:15;;;;;;;2.47;0.98;;;16.20;99.90;;;;;;5024330;28;20110;-68
2022/01/01 12:27:48;;;;;;;4.43;1.10;;;16.20;99.90;;;;;;5031714;28;20030;-67
2022/01/01 12:30:38;;;;;;;3.03;1.13;;;16.20;99.90;;;;;;5032327;28;20526;-68
2022/01/01 12:33:05;;;;;;;2.25;0.90;;;16.00;99.90;;;;;;5032433;28;20026;-67
2022/01/01 12:35:52;;;;;;;9.27;1.38;;;15.80;99.90;;;;;;5031303;28;20032;-67
2022/01/01 12:38:22;;;;;;;5.50;1.23;;;15.70;99.90;;;;;;5027653;28;20091;-67
2022/01/01 12:41:07;;;;;;;7.18;1.48;;;15.40;99.90;;;;;;5026142;28;20017;-68
2022/01/01 12:43:42;;;;;;;2.05;0.80;;;15.50;99.90;;;;;;5031706;28;20379;-68
2022/01/01 12:46:09;;;;;;;2.35;0.90;;;15.50;99.90;;;;;;5023550;28;20029;-67
2022/01/01 12:48:36;;;;;;;5.07;1.13;;;15.40;99.90;;;;;;5028838;28;20049;-67
2022/01/01 12:51:29;;;;;;;2.20;0.90;;;15.30;99.90;;;;;;5029558;28;20023;-68
2022/01/01 12:53:59;;;;;;;3.47;1.08;;;15.20;99.90;;;;;;5027740;28;20064;-68